sensor_id;sensor_type;location;lat;lon;timestamp;pressure;altitude;pressure_sealevel;temperature;humidity
44359;BME280;30077;52.474;13.326;2022-08-21T00:01:12;100913.97;;;19.18;100.00
44359;BME280;30077;52.474;13.326;2022-08-21T00:06:13;100918.84;;;19.13;100.00
44359;BME280;30077;52.474;13.326;2022-08-21T00:11:14;100925.25;;;19.12;100.00
44359;BME280;30077;52.474;13.326;2022-08-21T00:16:14;100923.94;;;19.17;100.00
44359;BME280;30077;52.474;13.326;2022-08-21T00:21:15;100920.94;;;19.09;100.00
44359;BME280;30077;52.474;13.326;2022-08-21T00:26:15;100912.09;;;19.07;100.00
44359;BME280;30077;52.474;13.326;2022-08-21T00:31:16;100909.09;;;18.99;100.00
44359;BME280;30077;52.474;13.326;2022-08-21T00:36:16;100917.91;;;18.90;100.00
44359;BME280;30077;52.474;13.326;2022-08-21T00:41:17;100913.50;;;18.89;100.00
44359;BME280;30077;52.474;13.326;2022-08-21T00:46:17;100916.53;;;18.84;100.00
44359;BME280;30077;52.474;13.326;2022-08-21T00:51:20;100917.88;;;18.79;100.00
44359;BME280;30077;52.474;13.326;2022-08-21T00:56:24;100912.69;;;18.75;100.00
44359;BME280;30077;52.474;13.326;2022-08-21T01:01:24;100906.22;;;18.65;100.00
44359;BME280;30077;52.474;13.326;2022-08-21T01:06:25;100911.19;;;18.59;100.00
44359;BME280;30077;52.474;13.326;2022-08-21T01:11:25;100914.16;;;18.56;100.00
44359;BME280;30077;52.474;13.326;2022-08-21T01:16:25;100910.81;;;18.52;100.00
44359;BME280;30077;52.474;13.326;2022-08-21T01:21:26;100912.00;;;18.48;100.00
44359;BME280;30077;52.474;13.326;2022-08-21T01:26:31;100913.69;;;18.38;100.00
44359;BME280;30077;52.474;13.326;2022-08-21T01:31:31;100913.69;;;18.38;100.00
44359;BME280;30077;52.474;13.326;2022-08-21T01:36:33;100911.22;;;18.35;100.00
44359;BME280;30077;52.474;13.326;2022-08-21T01:41:33;100918.03;;;18.27;100.00
44359;BME280;30077;52.474;13.326;2022-08-21T01:46:34;100927.50;;;18.33;100.00
44359;BME280;30077;52.474;13.326;2022-08-21T01:51:34;100927.13;;;18.26;100.00
44359;BME280;30077;52.474;13.326;2022-08-21T01:56:37;100923.66;;;18.24;100.00
44359;BME280;30077;52.474;13.326;2022-08-21T02:01:39;100920.88;;;18.13;100.00
44359;BME280;30077;52.474;13.326;2022-08-21T02:06:42;100929.97;;;18.12;100.00
44359;BME280;30077;52.474;13.326;2022-08-21T02:11:43;100934.59;;;18.10;100.00
44359;BME280;30077;52.474;13.326;2022-08-21T02:16:44;100928.44;;;18.08;100.00
44359;BME280;30077;52.474;13.326;2022-08-21T02:21:44;100928.44;;;18.08;100.00
44359;BME280;30077;52.474;13.326;2022-08-21T02:26:45;100922.63;;;18.01;100.00
44359;BME280;30077;52.474;13.326;2022-08-21T02:31:45;100920.88;;;18.00;100.00
44359;BME280;30077;52.474;13.326;2022-08-21T02:36:45;100927.81;;;17.92;100.00
44359;BME280;30077;52.474;13.326;2022-08-21T02:41:45;100917.44;;;17.86;100.00
44359;BME280;30077;52.474;13.326;2022-08-21T02:46:46;100917.44;;;17.86;100.00
44359;BME280;30077;52.474;13.326;2022-08-21T02:51:46;100915.75;;;17.85;100.00
44359;BME280;30077;52.474;13.326;2022-08-21T02:56:46;100921.56;;;17.78;100.00
44359;BME280;30077;52.474;13.326;2022-08-21T03:01:46;100925.53;;;17.73;100.00
44359;BME280;30077;52.474;13.326;2022-08-21T03:06:47;100925.31;;;17.63;100.00
44359;BME280;30077;52.474;13.326;2022-08-21T03:11:47;100923.94;;;17.58;100.00
44359;BME280;30077;52.474;13.326;2022-08-21T03:16:48;100923.50;;;17.51;100.00
44359;BME280;30077;52.474;13.326;2022-08-21T03:21:48;100927.59;;;17.44;100.00
44359;BME280;30077;52.474;13.326;2022-08-21T03:26:48;100912.47;;;17.41;100.00
44359;BME280;30077;52.474;13.326;2022-08-21T03:31:49;100926.09;;;17.40;100.00
44359;BME280;30077;52.474;13.326;2022-08-21T03:36:49;100925.44;;;17.36;100.00
44359;BME280;30077;52.474;13.326;2022-08-21T03:41:49;100929.94;;;17.36;100.00
44359;BME280;30077;52.474;13.326;2022-08-21T03:46:50;100919.59;;;17.29;100.00
44359;BME280;30077;52.474;13.326;2022-08-21T03:51:50;100932.31;;;17.27;100.00
44359;BME280;30077;52.474;13.326;2022-08-21T03:56:51;100924.34;;;17.26;100.00
44359;BME280;30077;52.474;13.326;2022-08-21T04:01:56;100933.59;;;17.22;100.00
44359;BME280;30077;52.474;13.326;2022-08-21T04:06:57;100935.84;;;17.15;100.00
44359;BME280;30077;52.474;13.326;2022-08-21T04:11:58;100938.22;;;17.20;100.00
44359;BME280;30077;52.474;13.326;2022-08-21T04:16:59;100946.75;;;17.26;100.00
44359;BME280;30077;52.474;13.326;2022-08-21T04:21:59;100948.16;;;17.19;100.00
44359;BME280;30077;52.474;13.326;2022-08-21T04:27:00;100944.13;;;17.12;100.00
44359;BME280;30077;52.474;13.326;2022-08-21T04:32:00;100935.94;;;17.14;100.00
44359;BME280;30077;52.474;13.326;2022-08-21T04:37:00;100938.34;;;17.18;100.00
44359;BME280;30077;52.474;13.326;2022-08-21T04:42:01;100945.03;;;17.25;100.00
44359;BME280;30077;52.474;13.326;2022-08-21T04:47:01;100945.69;;;17.29;100.00
44359;BME280;30077;52.474;13.326;2022-08-21T04:52:01;100941.59;;;17.36;98.93
44359;BME280;30077;52.474;13.326;2022-08-21T04:57:06;100954.97;;;17.38;99.41
44359;BME280;30077;52.474;13.326;2022-08-21T05:02:09;100958.56;;;17.51;97.63
44359;BME280;30077;52.474;13.326;2022-08-21T05:07:12;100951.00;;;17.56;97.40
44359;BME280;30077;52.474;13.326;2022-08-21T05:12:14;100954.78;;;17.41;97.24
44359;BME280;30077;52.474;13.326;2022-08-21T05:17:14;100961.56;;;17.46;97.64
44359;BME280;30077;52.474;13.326;2022-08-21T05:22:21;100955.41;;;17.44;97.11
44359;BME280;30077;52.474;13.326;2022-08-21T05:27:22;100960.50;;;17.49;96.02
44359;BME280;30077;52.474;13.326;2022-08-21T05:32:22;100964.81;;;17.51;96.04
44359;BME280;30077;52.474;13.326;2022-08-21T05:37:23;100969.03;;;17.68;95.14
44359;BME280;30077;52.474;13.326;2022-08-21T05:42:23;100973.03;;;17.75;93.76
44359;BME280;30077;52.474;13.326;2022-08-21T05:47:23;100987.22;;;17.92;94.39
44359;BME280;30077;52.474;13.326;2022-08-21T05:52:24;100975.31;;;18.07;95.02
44359;BME280;30077;52.474;13.326;2022-08-21T05:57:24;100984.78;;;18.25;94.13
44359;BME280;30077;52.474;13.326;2022-08-21T06:02:25;100982.16;;;18.49;93.49
44359;BME280;30077;52.474;13.326;2022-08-21T06:07:25;100982.78;;;18.53;92.86
44359;BME280;30077;52.474;13.326;2022-08-21T06:12:25;100983.38;;;18.69;91.35
44359;BME280;30077;52.474;13.326;2022-08-21T06:17:26;100980.75;;;18.81;89.28
44359;BME280;30077;52.474;13.326;2022-08-21T06:22:26;100973.91;;;18.64;90.58
44359;BME280;30077;52.474;13.326;2022-08-21T06:27:26;100987.91;;;18.69;90.11
44359;BME280;30077;52.474;13.326;2022-08-21T06:32:27;100985.94;;;18.47;89.96
44359;BME280;30077;52.474;13.326;2022-08-21T06:37:27;100985.78;;;18.74;88.09
44359;BME280;30077;52.474;13.326;2022-08-21T06:42:27;100987.75;;;18.96;86.30
44359;BME280;30077;52.474;13.326;2022-08-21T06:47:28;100984.06;;;18.60;87.40
44359;BME280;30077;52.474;13.326;2022-08-21T06:52:28;100995.03;;;18.83;86.62
44359;BME280;30077;52.474;13.326;2022-08-21T06:57:28;100984.06;;;18.97;86.13
44359;BME280;30077;52.474;13.326;2022-08-21T07:02:28;100982.16;;;19.10;84.44
44359;BME280;30077;52.474;13.326;2022-08-21T07:07:29;100990.47;;;18.96;83.95
44359;BME280;30077;52.474;13.326;2022-08-21T07:12:29;100975.25;;;19.06;83.61
44359;BME280;30077;52.474;13.326;2022-08-21T07:17:30;100971.50;;;19.20;83.73
44359;BME280;30077;52.474;13.326;2022-08-21T07:22:30;100980.81;;;19.40;80.84
44359;BME280;30077;52.474;13.326;2022-08-21T07:27:31;100987.69;;;19.44;80.88
44359;BME280;30077;52.474;13.326;2022-08-21T07:32:31;100983.16;;;20.02;79.94
44359;BME280;30077;52.474;13.326;2022-08-21T07:37:31;100979.59;;;20.24;75.47
44359;BME280;30077;52.474;13.326;2022-08-21T07:42:32;100977.97;;;20.33;75.16
44359;BME280;30077;52.474;13.326;2022-08-21T07:47:32;100978.69;;;20.68;72.93
44359;BME280;30077;52.474;13.326;2022-08-21T07:52:33;100976.81;;;20.91;70.34
44359;BME280;30077;52.474;13.326;2022-08-21T07:57:33;100974.09;;;20.91;70.14
44359;BME280;30077;52.474;13.326;2022-08-21T08:02:34;100967.72;;;21.02;69.16
44359;BME280;30077;52.474;13.326;2022-08-21T08:07:34;100970.78;;;20.77;69.15
44359;BME280;30077;52.474;13.326;2022-08-21T08:12:36;100964.13;;;20.70;68.22
44359;BME280;30077;52.474;13.326;2022-08-21T08:17:37;100960.75;;;21.00;69.14
44359;BME280;30077;52.474;13.326;2022-08-21T08:22:39;100979.16;;;20.85;67.29
44359;BME280;30077;52.474;13.326;2022-08-21T08:27:40;100974.84;;;20.82;69.16
44359;BME280;30077;52.474;13.326;2022-08-21T08:32:40;100971.75;;;20.87;67.34
44359;BME280;30077;52.474;13.326;2022-08-21T08:37:40;100974.56;;;20.97;67.62
44359;BME280;30077;52.474;13.326;2022-08-21T08:42:41;100978.41;;;20.83;67.09
44359;BME280;30077;52.474;13.326;2022-08-21T08:47:47;100980.94;;;21.28;66.43
44359;BME280;30077;52.474;13.326;2022-08-21T08:52:54;100978.28;;;21.16;65.11
44359;BME280;30077;52.474;13.326;2022-08-21T08:57:57;100966.06;;;21.22;63.45
44359;BME280;30077;52.474;13.326;2022-08-21T09:03:00;100965.13;;;21.44;62.84
44359;BME280;30077;52.474;13.326;2022-08-21T09:08:28;100958.91;;;22.05;62.67
44359;BME280;30077;52.474;13.326;2022-08-21T09:13:50;100976.69;;;21.88;60.92
44359;BME280;30077;52.474;13.326;2022-08-21T09:19:04;100981.78;;;21.81;60.29
44359;BME280;30077;52.474;13.326;2022-08-21T09:29:22;100963.09;;;22.49;59.72
44359;BME280;30077;52.474;13.326;2022-08-21T09:34:26;100972.56;;;22.65;59.00
44359;BME280;30077;52.474;13.326;2022-08-21T09:39:30;100967.44;;;22.00;59.73
44359;BME280;30077;52.474;13.326;2022-08-21T09:44:33;100964.28;;;22.26;59.11
44359;BME280;30077;52.474;13.326;2022-08-21T09:49:39;100953.03;;;22.40;58.38
44359;BME280;30077;52.474;13.326;2022-08-21T09:54:41;100955.47;;;22.93;56.98
44359;BME280;30077;52.474;13.326;2022-08-21T09:59:45;100960.03;;;23.61;54.06
44359;BME280;30077;52.474;13.326;2022-08-21T10:04:52;100965.50;;;23.32;56.25
44359;BME280;30077;52.474;13.326;2022-08-21T10:10:06;100961.34;;;23.18;53.90
44359;BME280;30077;52.474;13.326;2022-08-21T10:15:11;100960.63;;;22.96;55.09
44359;BME280;30077;52.474;13.326;2022-08-21T10:20:27;100955.47;;;23.13;55.23
44359;BME280;30077;52.474;13.326;2022-08-21T10:25:38;100958.56;;;23.57;51.60
44359;BME280;30077;52.474;13.326;2022-08-21T10:30:56;100960.75;;;23.53;51.01
44359;BME280;30077;52.474;13.326;2022-08-21T10:36:07;100962.06;;;23.20;48.44
44359;BME280;30077;52.474;13.326;2022-08-21T10:46:51;100961.19;;;23.68;50.00
44359;BME280;30077;52.474;13.326;2022-08-21T10:57:41;100966.38;;;23.32;48.02
44359;BME280;30077;52.474;13.326;2022-08-21T11:02:52;100955.84;;;23.76;46.83
44359;BME280;30077;52.474;13.326;2022-08-21T11:08:12;100956.91;;;23.36;46.89
44359;BME280;30077;52.474;13.326;2022-08-21T11:13:19;100952.31;;;23.46;46.02
44359;BME280;30077;52.474;13.326;2022-08-21T11:23:33;100944.88;;;23.39;45.92
44359;BME280;30077;52.474;13.326;2022-08-21T11:28:45;100953.41;;;23.63;47.00
44359;BME280;30077;52.474;13.326;2022-08-21T11:33:51;100947.44;;;23.50;45.30
44359;BME280;30077;52.474;13.326;2022-08-21T11:39:04;100950.31;;;23.29;45.15
44359;BME280;30077;52.474;13.326;2022-08-21T11:44:34;100957.88;;;23.54;43.16
44359;BME280;30077;52.474;13.326;2022-08-21T11:49:56;100940.09;;;23.70;43.03
44359;BME280;30077;52.474;13.326;2022-08-21T11:55:16;100955.56;;;23.60;44.10
44359;BME280;30077;52.474;13.326;2022-08-21T12:05:26;100949.75;;;23.35;44.58
44359;BME280;30077;52.474;13.326;2022-08-21T12:10:41;100943.44;;;23.25;44.10
44359;BME280;30077;52.474;13.326;2022-08-21T12:15:42;100939.13;;;23.13;45.59
44359;BME280;30077;52.474;13.326;2022-08-21T12:26:29;100931.53;;;23.36;45.58
44359;BME280;30077;52.474;13.326;2022-08-21T12:31:30;100930.03;;;23.80;43.22
44359;BME280;30077;52.474;13.326;2022-08-21T12:36:46;100927.91;;;23.64;45.62
44359;BME280;30077;52.474;13.326;2022-08-21T12:42:05;100925.09;;;23.37;45.73
44359;BME280;30077;52.474;13.326;2022-08-21T12:47:14;100920.38;;;23.39;44.45
44359;BME280;30077;52.474;13.326;2022-08-21T12:52:29;100912.41;;;23.65;45.25
44359;BME280;30077;52.474;13.326;2022-08-21T12:57:30;100912.78;;;23.23;46.57
44359;BME280;30077;52.474;13.326;2022-08-21T13:02:36;100908.03;;;23.35;47.14
44359;BME280;30077;52.474;13.326;2022-08-21T13:07:45;100915.16;;;23.45;48.38
44359;BME280;30077;52.474;13.326;2022-08-21T13:12:47;100915.59;;;23.50;47.90
44359;BME280;30077;52.474;13.326;2022-08-21T13:17:48;100911.19;;;23.49;48.59
44359;BME280;30077;52.474;13.326;2022-08-21T13:22:50;100909.59;;;23.27;48.77
44359;BME280;30077;52.474;13.326;2022-08-21T13:33:05;100904.72;;;23.41;49.52
44359;BME280;30077;52.474;13.326;2022-08-21T13:38:07;100913.78;;;23.88;48.61
44359;BME280;30077;52.474;13.326;2022-08-21T13:43:16;100906.03;;;23.93;48.80
44359;BME280;30077;52.474;13.326;2022-08-21T13:48:20;100916.31;;;23.99;49.03
44359;BME280;30077;52.474;13.326;2022-08-21T13:58:43;100909.28;;;24.34;46.50
44359;BME280;30077;52.474;13.326;2022-08-21T14:03:47;100905.22;;;23.83;47.88
44359;BME280;30077;52.474;13.326;2022-08-21T14:08:57;100902.00;;;23.97;47.95
44359;BME280;30077;52.474;13.326;2022-08-21T14:14:01;100895.81;;;23.68;48.67
44359;BME280;30077;52.474;13.326;2022-08-21T14:29:07;100900.22;;;23.78;48.93
44359;BME280;30077;52.474;13.326;2022-08-21T14:34:11;100900.47;;;23.85;48.51
44359;BME280;30077;52.474;13.326;2022-08-21T14:39:12;100881.56;;;23.84;47.84
44359;BME280;30077;52.474;13.326;2022-08-21T14:44:14;100902.91;;;24.43;46.79
44359;BME280;30077;52.474;13.326;2022-08-21T14:49:14;100878.03;;;24.74;46.31
44359;BME280;30077;52.474;13.326;2022-08-21T14:54:16;100886.66;;;24.24;47.77
44359;BME280;30077;52.474;13.326;2022-08-21T14:59:17;100894.63;;;24.35;48.00
44359;BME280;30077;52.474;13.326;2022-08-21T15:04:17;100896.34;;;24.36;48.53
44359;BME280;30077;52.474;13.326;2022-08-21T15:09:18;100893.81;;;24.25;48.39
44359;BME280;30077;52.474;13.326;2022-08-21T15:14:23;100900.16;;;23.88;49.14
44359;BME280;30077;52.474;13.326;2022-08-21T15:19:24;100899.28;;;23.97;48.61
44359;BME280;30077;52.474;13.326;2022-08-21T15:24:25;100895.16;;;23.93;47.92
44359;BME280;30077;52.474;13.326;2022-08-21T15:29:26;100887.31;;;24.08;47.96
44359;BME280;30077;52.474;13.326;2022-08-21T15:34:28;100887.97;;;23.92;48.96
44359;BME280;30077;52.474;13.326;2022-08-21T15:39:28;100882.47;;;23.65;49.53
44359;BME280;30077;52.474;13.326;2022-08-21T15:44:29;100885.31;;;23.73;49.31
44359;BME280;30077;52.474;13.326;2022-08-21T15:49:30;100886.88;;;23.66;50.08
44359;BME280;30077;52.474;13.326;2022-08-21T15:54:30;100882.75;;;23.62;50.63
44359;BME280;30077;52.474;13.326;2022-08-21T15:59:38;100886.06;;;23.55;50.39
44359;BME280;30077;52.474;13.326;2022-08-21T16:04:39;100885.81;;;23.39;50.75
44359;BME280;30077;52.474;13.326;2022-08-21T16:09:40;100882.38;;;23.27;51.34
44359;BME280;30077;52.474;13.326;2022-08-21T16:14:40;100878.63;;;23.38;51.23
44359;BME280;30077;52.474;13.326;2022-08-21T16:19:41;100884.06;;;23.48;51.55
44359;BME280;30077;52.474;13.326;2022-08-21T16:24:41;100873.19;;;23.38;51.36
44359;BME280;30077;52.474;13.326;2022-08-21T16:29:42;100880.09;;;23.42;52.11
44359;BME280;30077;52.474;13.326;2022-08-21T16:34:46;100878.41;;;23.32;51.84
44359;BME280;30077;52.474;13.326;2022-08-21T16:39:47;100876.38;;;23.24;51.96
44359;BME280;30077;52.474;13.326;2022-08-21T16:44:47;100874.47;;;23.53;50.80
44359;BME280;30077;52.474;13.326;2022-08-21T16:49:47;100880.50;;;24.49;47.72
44359;BME280;30077;52.474;13.326;2022-08-21T16:54:49;100874.19;;;25.03;46.27
44359;BME280;30077;52.474;13.326;2022-08-21T16:59:50;100880.97;;;25.60;44.93
44359;BME280;30077;52.474;13.326;2022-08-21T17:04:50;100874.31;;;25.37;45.47
44359;BME280;30077;52.474;13.326;2022-08-21T17:09:51;100879.97;;;24.36;46.70
44359;BME280;30077;52.474;13.326;2022-08-21T17:14:51;100877.34;;;23.89;47.80
44359;BME280;30077;52.474;13.326;2022-08-21T17:19:51;100878.06;;;23.44;49.08
44359;BME280;30077;52.474;13.326;2022-08-21T17:24:52;100870.13;;;23.14;49.58
44359;BME280;30077;52.474;13.326;2022-08-21T17:29:53;100872.72;;;22.96;50.67
44359;BME280;30077;52.474;13.326;2022-08-21T17:34:54;100874.97;;;22.81;50.73
44359;BME280;30077;52.474;13.326;2022-08-21T17:39:54;100870.81;;;22.67;51.70
44359;BME280;30077;52.474;13.326;2022-08-21T17:44:54;100874.81;;;22.53;51.48
44359;BME280;30077;52.474;13.326;2022-08-21T17:49:56;100877.81;;;22.41;52.81
44359;BME280;30077;52.474;13.326;2022-08-21T17:54:56;100882.31;;;22.21;53.19
44359;BME280;30077;52.474;13.326;2022-08-21T17:59:56;100889.13;;;22.05;54.16
44359;BME280;30077;52.474;13.326;2022-08-21T18:04:57;100886.94;;;21.90;54.16
44359;BME280;30077;52.474;13.326;2022-08-21T18:09:57;100893.84;;;21.73;54.69
44359;BME280;30077;52.474;13.326;2022-08-21T18:15:00;100895.19;;;21.57;54.71
44359;BME280;30077;52.474;13.326;2022-08-21T18:20:00;100896.66;;;21.41;56.63
44359;BME280;30077;52.474;13.326;2022-08-21T18:25:01;100901.19;;;21.19;56.63
44359;BME280;30077;52.474;13.326;2022-08-21T18:30:02;100896.50;;;21.00;59.37
44359;BME280;30077;52.474;13.326;2022-08-21T18:35:04;100908.66;;;20.85;60.53
44359;BME280;30077;52.474;13.326;2022-08-21T18:40:06;100899.97;;;20.70;61.40
44359;BME280;30077;52.474;13.326;2022-08-21T18:45:09;100903.31;;;20.51;61.76
44359;BME280;30077;52.474;13.326;2022-08-21T18:50:13;100907.28;;;20.36;63.20
44359;BME280;30077;52.474;13.326;2022-08-21T18:55:15;100901.03;;;20.24;63.84
44359;BME280;30077;52.474;13.326;2022-08-21T19:00:19;100905.34;;;20.15;64.51
44359;BME280;30077;52.474;13.326;2022-08-21T19:05:21;100910.16;;;20.12;65.34
44359;BME280;30077;52.474;13.326;2022-08-21T19:10:23;100911.75;;;20.03;65.55
44359;BME280;30077;52.474;13.326;2022-08-21T19:15:23;100916.94;;;19.95;67.33
44359;BME280;30077;52.474;13.326;2022-08-21T19:20:28;100916.69;;;19.87;66.91
44359;BME280;30077;52.474;13.326;2022-08-21T19:25:28;100917.16;;;19.81;67.39
44359;BME280;30077;52.474;13.326;2022-08-21T19:30:29;100918.41;;;19.77;67.93
44359;BME280;30077;52.474;13.326;2022-08-21T19:35:30;100915.31;;;19.70;69.50
44359;BME280;30077;52.474;13.326;2022-08-21T19:40:30;100913.31;;;19.61;69.90
44359;BME280;30077;52.474;13.326;2022-08-21T19:45:33;100913.03;;;19.53;70.65
44359;BME280;30077;52.474;13.326;2022-08-21T19:50:34;100910.72;;;19.48;69.97
44359;BME280;30077;52.474;13.326;2022-08-21T19:55:34;100912.94;;;19.43;70.15
44359;BME280;30077;52.474;13.326;2022-08-21T20:00:34;100918.66;;;19.38;70.62
44359;BME280;30077;52.474;13.326;2022-08-21T20:05:34;100917.09;;;19.36;70.58
44359;BME280;30077;52.474;13.326;2022-08-21T20:10:35;100918.28;;;19.32;70.30
44359;BME280;30077;52.474;13.326;2022-08-21T20:15:35;100922.09;;;19.29;71.15
44359;BME280;30077;52.474;13.326;2022-08-21T20:20:35;100928.84;;;19.23;72.09
44359;BME280;30077;52.474;13.326;2022-08-21T20:25:36;100924.16;;;19.14;72.04
44359;BME280;30077;52.474;13.326;2022-08-21T20:30:38;100916.28;;;19.11;73.03
44359;BME280;30077;52.474;13.326;2022-08-21T20:35:39;100924.84;;;19.05;73.52
44359;BME280;30077;52.474;13.326;2022-08-21T20:40:41;100922.72;;;18.97;74.05
44359;BME280;30077;52.474;13.326;2022-08-21T20:45:42;100919.63;;;18.91;74.64
44359;BME280;30077;52.474;13.326;2022-08-21T20:50:47;100923.78;;;18.84;75.05
44359;BME280;30077;52.474;13.326;2022-08-21T20:55:49;100930.41;;;18.80;75.13
44359;BME280;30077;52.474;13.326;2022-08-21T21:00:50;100941.44;;;18.76;76.12
44359;BME280;30077;52.474;13.326;2022-08-21T21:05:54;100933.69;;;18.72;76.51
44359;BME280;30077;52.474;13.326;2022-08-21T21:11:32;100935.22;;;18.63;77.06
44359;BME280;30077;52.474;13.326;2022-08-21T21:16:44;100933.06;;;18.56;77.43
44359;BME280;30077;52.474;13.326;2022-08-21T21:21:53;100945.41;;;18.47;78.39
44359;BME280;30077;52.474;13.326;2022-08-21T21:27:08;100943.91;;;18.43;78.59
44359;BME280;30077;52.474;13.326;2022-08-21T21:32:11;100934.41;;;18.37;78.24
44359;BME280;30077;52.474;13.326;2022-08-21T21:37:21;100937.22;;;18.36;78.13
44359;BME280;30077;52.474;13.326;2022-08-21T21:48:08;100945.03;;;18.27;79.34
44359;BME280;30077;52.474;13.326;2022-08-21T21:53:39;100960.81;;;18.21;79.73
44359;BME280;30077;52.474;13.326;2022-08-21T22:09:58;100963.53;;;18.08;80.77
44359;BME280;30077;52.474;13.326;2022-08-21T22:15:00;100956.09;;;17.99;80.98
44359;BME280;30077;52.474;13.326;2022-08-21T22:20:06;100955.34;;;17.97;80.39
44359;BME280;30077;52.474;13.326;2022-08-21T22:25:24;100958.03;;;17.97;80.08
44359;BME280;30077;52.474;13.326;2022-08-21T22:35:40;100954.38;;;17.85;81.04
44359;BME280;30077;52.474;13.326;2022-08-21T22:40:40;100957.41;;;17.80;81.17
44359;BME280;30077;52.474;13.326;2022-08-21T22:51:05;100964.75;;;17.78;81.54
44359;BME280;30077;52.474;13.326;2022-08-21T22:56:08;100964.06;;;17.75;81.93
44359;BME280;30077;52.474;13.326;2022-08-21T23:01:15;100959.97;;;17.69;83.02
44359;BME280;30077;52.474;13.326;2022-08-21T23:06:28;100961.16;;;17.65;83.13
44359;BME280;30077;52.474;13.326;2022-08-21T23:11:42;100968.69;;;17.60;83.78
44359;BME280;30077;52.474;13.326;2022-08-21T23:16:55;100963.63;;;17.55;84.47
44359;BME280;30077;52.474;13.326;2022-08-21T23:22:34;100959.31;;;17.53;84.86
44359;BME280;30077;52.474;13.326;2022-08-21T23:27:56;100961.06;;;17.54;85.36
44359;BME280;30077;52.474;13.326;2022-08-21T23:33:10;100961.69;;;17.58;85.99
44359;BME280;30077;52.474;13.326;2022-08-21T23:38:52;100954.69;;;17.55;84.87
44359;BME280;30077;52.474;13.326;2022-08-21T23:49:28;100958.75;;;17.61;86.38
44359;BME280;30077;52.474;13.326;2022-08-21T23:54:36;100956.06;;;17.61;82.90
